createdAt,value
2018-03-16T00:00:34.223Z,36.20
2018-03-16T00:03:06.696Z,37.30
2018-03-16T00:05:39.205Z,37.73
2018-03-16T00:08:11.709Z,40.07
2018-03-16T00:10:44.381Z,35.53
2018-03-16T00:13:16.952Z,37.23
2018-03-16T00:15:49.462Z,37.80
2018-03-16T00:18:21.966Z,35.10
2018-03-16T00:20:54.471Z,35.70
2018-03-16T00:23:26.949Z,32.63
2018-03-16T00:25:59.446Z,34.63
2018-03-16T00:28:31.931Z,32.97
2018-03-16T00:31:04.438Z,35.00
2018-03-16T00:33:36.916Z,34.60
2018-03-16T00:36:09.405Z,38.77
2018-03-16T00:38:42.059Z,36.00
2018-03-16T00:41:14.715Z,26.50
2018-03-16T00:43:47.311Z,32.13
2018-03-16T00:46:19.824Z,35.00
2018-03-16T00:48:52.351Z,37.33
2018-03-16T00:51:24.853Z,34.33
2018-03-16T00:53:57.326Z,38.67
2018-03-16T00:56:29.828Z,36.93
2018-03-16T00:59:02.297Z,39.20
2018-03-16T01:01:34.790Z,39.50
2018-03-16T01:04:07.262Z,29.67
2018-03-16T01:06:39.755Z,33.23
2018-03-16T01:09:12.441Z,36.20
2018-03-16T01:11:45.062Z,35.63
2018-03-16T01:14:17.651Z,38.67
2018-03-16T01:16:50.257Z,38.23
2018-03-16T01:19:22.825Z,37.23
2018-03-16T01:21:55.328Z,40.43
2018-03-16T01:24:27.817Z,41.33
2018-03-16T01:27:00.326Z,26.73
2018-03-16T01:29:32.812Z,32.47
2018-03-16T01:32:05.306Z,31.90
2018-03-16T01:34:37.786Z,38.60
2018-03-16T01:37:10.295Z,32.00
2018-03-16T01:39:43.245Z,34.67
2018-03-16T01:42:15.877Z,33.83
2018-03-16T01:44:48.401Z,37.30
2018-03-16T01:47:20.949Z,38.83
2018-03-16T01:49:53.462Z,35.80
2018-03-16T01:52:25.958Z,35.50
2018-03-16T01:54:58.437Z,39.90
2018-03-16T01:57:30.934Z,33.60
2018-03-16T02:00:03.412Z,35.43
2018-03-16T02:02:35.915Z,35.00
2018-03-16T02:05:08.402Z,38.27
2018-03-16T02:07:40.903Z,33.93
2018-03-16T02:10:13.467Z,32.30
2018-03-16T02:12:46.127Z,33.93
2018-03-16T02:15:18.656Z,36.37
2018-03-16T02:17:51.226Z,27.00
2018-03-16T02:20:23.757Z,31.10
2018-03-16T02:22:56.272Z,27.80
2018-03-16T02:25:28.751Z,35.97
2018-03-16T02:28:01.248Z,27.37
2018-03-16T02:30:33.726Z,33.80
2018-03-16T02:33:06.230Z,30.43
2018-03-16T02:35:38.706Z,31.67
2018-03-16T02:38:11.211Z,32.73
2018-03-16T02:40:44.335Z,35.77
2018-03-16T02:43:17.137Z,35.70
2018-03-16T02:45:49.670Z,33.93
2018-03-16T02:48:22.235Z,33.83
2018-03-16T02:50:54.734Z,36.00
2018-03-16T02:53:27.208Z,25.10
2018-03-16T02:55:59.723Z,36.10
2018-03-16T02:58:32.204Z,35.67
2018-03-16T03:01:04.711Z,30.13
2018-03-16T03:03:37.202Z,33.80
2018-03-16T03:06:09.704Z,31.93
2018-03-16T03:08:43.499Z,39.03
2018-03-16T03:11:16.350Z,36.77
2018-03-16T03:13:48.867Z,33.53
2018-03-16T03:16:21.390Z,34.67
2018-03-16T03:18:53.894Z,29.07
2018-03-16T03:21:26.386Z,33.43
2018-03-16T03:23:58.857Z,33.47
2018-03-16T03:26:31.361Z,34.20
2018-03-16T03:29:03.829Z,33.13
2018-03-16T03:31:36.324Z,33.10
2018-03-16T03:34:08.802Z,28.77
2018-03-16T03:36:41.310Z,31.90
2018-03-16T03:39:13.881Z,30.90
2018-03-16T03:41:46.411Z,28.87
2018-03-16T03:44:18.927Z,31.27
2018-03-16T03:46:51.437Z,32.17
2018-03-16T03:49:23.949Z,27.93
2018-03-16T03:51:56.450Z,29.33
2018-03-16T03:54:28.927Z,32.33
2018-03-16T03:57:01.418Z,27.23
2018-03-16T03:59:33.885Z,25.83
2018-03-16T04:02:06.382Z,19.30
2018-03-16T04:04:38.850Z,26.10
2018-03-16T04:07:11.351Z,28.00
2018-03-16T04:09:44.646Z,24.93
2018-03-16T04:12:17.394Z,27.43
2018-03-16T04:14:49.945Z,28.20
2018-03-16T04:17:22.542Z,25.57
2018-03-16T04:19:55.051Z,22.17
2018-03-16T04:22:27.558Z,25.33
2018-03-16T04:25:00.035Z,22.53
2018-03-16T04:27:32.529Z,25.37
2018-03-16T04:30:05.033Z,25.20
2018-03-16T04:32:37.534Z,23.87
2018-03-16T04:35:10.032Z,23.10
2018-03-16T04:37:42.909Z,23.60
2018-03-16T04:40:15.517Z,23.47
2018-03-16T04:42:48.090Z,23.07
2018-03-16T04:45:20.665Z,23.20
2018-03-16T04:47:53.247Z,24.57
2018-03-16T04:50:25.760Z,21.53
2018-03-16T04:52:58.263Z,21.60
2018-03-16T04:55:30.744Z,26.23
2018-03-16T04:58:03.241Z,21.30
2018-03-16T05:00:35.724Z,19.13
2018-03-16T05:03:08.238Z,21.83
2018-03-16T05:05:40.714Z,18.07
2018-03-16T05:08:13.419Z,19.97
2018-03-16T05:10:46.050Z,9.77
2018-03-16T05:13:18.684Z,14.27
2018-03-16T05:15:51.271Z,18.97
2018-03-16T05:18:23.804Z,18.33
2018-03-16T05:20:56.280Z,16.80
2018-03-16T05:23:28.779Z,11.60
2018-03-16T05:26:01.247Z,16.37
2018-03-16T05:28:33.752Z,15.67
2018-03-16T05:31:06.235Z,16.60
2018-03-16T05:33:38.726Z,17.37
2018-03-16T05:36:11.220Z,17.63
2018-03-16T05:38:43.792Z,15.27
2018-03-16T05:41:16.377Z,14.47
2018-03-16T05:43:48.933Z,16.07
2018-03-16T05:46:22.184Z,16.47
2018-03-16T05:48:54.985Z,16.73
2018-03-16T05:51:27.467Z,17.00
2018-03-16T05:53:59.963Z,16.40
2018-03-16T05:56:32.443Z,19.37
2018-03-16T05:59:04.952Z,18.17
2018-03-16T06:01:37.440Z,17.43
2018-03-16T06:04:09.946Z,18.07
2018-03-16T06:06:42.761Z,17.20
2018-03-16T06:09:15.539Z,16.43
2018-03-16T06:11:48.049Z,17.20
2018-03-16T06:14:20.610Z,19.07
2018-03-16T06:16:53.208Z,17.60
2018-03-16T06:19:25.733Z,18.33
2018-03-16T06:21:58.227Z,18.77
2018-03-16T06:24:30.711Z,14.10
2018-03-16T06:27:03.205Z,8.33
2018-03-16T06:29:35.683Z,14.40
2018-03-16T06:32:08.179Z,16.20
2018-03-16T06:34:40.655Z,12.73
2018-03-16T06:37:13.415Z,14.93
2018-03-16T06:39:46.053Z,15.00
2018-03-16T06:42:18.643Z,16.70
2018-03-16T06:44:51.331Z,14.33
2018-03-16T06:47:23.959Z,15.83
2018-03-16T06:49:56.475Z,15.53
2018-03-16T06:52:28.984Z,15.83
2018-03-16T06:55:01.462Z,14.17
2018-03-16T06:57:33.965Z,12.63
2018-03-16T07:00:06.439Z,13.40
2018-03-16T07:02:38.942Z,14.80
2018-03-16T07:05:11.421Z,13.17
2018-03-16T07:07:44.453Z,14.33
2018-03-16T07:10:17.636Z,10.43
2018-03-16T07:12:50.501Z,14.90
2018-03-16T07:15:37.891Z,14.37
2018-03-16T07:18:10.383Z,14.97
2018-03-16T07:20:43.161Z,15.30
2018-03-16T07:23:15.967Z,14.30
2018-03-16T07:25:48.631Z,15.00
2018-03-16T07:28:21.273Z,12.10
2018-03-16T07:30:53.906Z,16.30
2018-03-16T07:33:26.462Z,18.40
2018-03-16T07:35:58.939Z,14.50
2018-03-16T07:38:31.439Z,13.10
2018-03-16T07:41:03.912Z,15.30
2018-03-16T07:43:36.416Z,15.40
2018-03-16T07:46:14.625Z,15.73
2018-03-16T07:48:47.774Z,16.20
2018-03-16T07:51:21.195Z,12.47
2018-03-16T07:53:53.856Z,14.97
2018-03-16T07:56:26.352Z,12.27
2018-03-16T07:58:58.855Z,14.00
2018-03-16T08:01:31.335Z,14.07
2018-03-16T08:04:03.835Z,12.67
2018-03-16T08:06:36.312Z,13.73
2018-03-16T08:09:08.816Z,12.93
2018-03-16T08:11:41.308Z,13.90
2018-03-16T08:14:15.055Z,13.90
2018-03-16T08:16:47.743Z,9.67
2018-03-16T08:19:20.337Z,14.43
2018-03-16T08:21:52.932Z,13.40
2018-03-16T08:24:25.514Z,16.47
2018-03-16T08:26:58.007Z,13.27
2018-03-16T08:29:30.511Z,15.27
2018-03-16T08:32:02.995Z,13.63
2018-03-16T08:34:35.490Z,13.70
2018-03-16T08:37:07.974Z,12.50
2018-03-16T08:39:40.476Z,12.43
2018-03-16T08:42:13.466Z,12.03
2018-03-16T08:44:46.753Z,12.80
2018-03-16T08:47:19.408Z,12.50
2018-03-16T08:49:52.040Z,12.13
2018-03-16T08:52:24.750Z,11.23
2018-03-16T08:54:57.284Z,12.13
2018-03-16T08:57:29.764Z,11.73
2018-03-16T09:00:02.266Z,11.70
2018-03-16T09:02:34.766Z,11.93
2018-03-16T09:05:07.272Z,11.93
2018-03-16T09:07:39.771Z,11.67
2018-03-16T09:10:12.918Z,11.03
2018-03-16T09:12:45.767Z,11.33
2018-03-16T09:15:18.417Z,10.83
2018-03-16T09:17:51.069Z,10.77
2018-03-16T09:20:23.701Z,10.23
2018-03-16T09:22:56.319Z,10.97
2018-03-16T09:25:28.865Z,13.33
2018-03-16T09:28:01.328Z,10.10
2018-03-16T09:30:34.263Z,10.20
2018-03-16T09:33:06.763Z,9.63
2018-03-16T09:35:39.240Z,7.23
2018-03-16T09:38:11.770Z,8.37
2018-03-16T09:40:44.695Z,10.23
2018-03-16T09:43:17.722Z,8.03
2018-03-16T09:45:50.432Z,10.03
2018-03-16T09:48:23.091Z,8.67
2018-03-16T09:50:55.631Z,10.13
2018-03-16T09:53:31.047Z,9.67
2018-03-16T09:56:03.523Z,9.00
2018-03-16T09:58:36.003Z,8.97
2018-03-16T10:01:08.513Z,9.20
2018-03-16T10:03:41.018Z,9.80
2018-03-16T10:06:14.631Z,8.27
2018-03-16T10:08:47.367Z,8.73
2018-03-16T10:11:19.999Z,8.13
2018-03-16T10:13:52.565Z,8.47
2018-03-16T10:16:25.110Z,7.90
2018-03-16T10:18:57.667Z,8.17
2018-03-16T10:21:30.145Z,7.37
2018-03-16T10:24:02.648Z,6.73
2018-03-16T10:26:35.114Z,5.33
2018-03-16T10:29:07.602Z,7.93
2018-03-16T10:31:40.074Z,7.67
2018-03-16T10:34:12.813Z,7.13
2018-03-16T10:36:45.968Z,7.57
2018-03-16T10:39:18.817Z,8.23
2018-03-16T10:41:51.414Z,5.63
2018-03-16T10:44:24.027Z,8.43
2018-03-16T10:46:56.565Z,7.70
2018-03-16T10:49:29.080Z,8.77
2018-03-16T10:52:01.543Z,7.70
2018-03-16T10:54:34.047Z,8.07
2018-03-16T10:57:06.552Z,10.27
2018-03-16T10:59:39.043Z,7.77
2018-03-16T11:02:17.464Z,7.60
2018-03-16T11:04:55.589Z,7.23
2018-03-16T11:07:44.040Z,6.80
2018-03-16T11:10:22.378Z,8.30
2018-03-16T11:12:54.883Z,7.10
2018-03-16T11:15:27.415Z,8.00
2018-03-16T11:17:59.926Z,6.47
2018-03-16T11:20:32.427Z,6.50
2018-03-16T11:23:04.890Z,7.00
2018-03-16T11:25:37.382Z,6.47
2018-03-16T11:28:09.883Z,7.23
2018-03-16T11:30:42.721Z,6.97
2018-03-16T11:33:15.549Z,10.57
2018-03-16T11:35:49.487Z,7.03
2018-03-16T11:38:22.658Z,7.07
2018-03-16T11:40:55.363Z,7.03
2018-03-16T11:43:29.181Z,7.50
2018-03-16T11:46:02.180Z,6.57
2018-03-16T11:48:34.994Z,4.70
2018-03-16T11:51:07.792Z,4.20
2018-03-16T11:53:41.760Z,5.90
2018-03-16T11:56:15.013Z,5.20
2018-03-16T11:58:48.162Z,5.47
2018-03-16T12:01:21.182Z,6.20
2018-03-16T12:03:56.262Z,5.37
2018-03-16T12:06:28.995Z,5.43
2018-03-16T12:09:01.533Z,6.43
2018-03-16T12:11:34.046Z,5.37
2018-03-16T12:14:06.698Z,5.43
2018-03-16T12:16:39.404Z,5.57
2018-03-16T12:19:11.985Z,5.87
2018-03-16T12:21:44.850Z,6.93
2018-03-16T12:24:17.776Z,5.80
2018-03-16T12:26:50.516Z,5.73
2018-03-16T12:29:23.395Z,6.50
2018-03-16T12:31:55.999Z,5.23
2018-03-16T12:34:28.538Z,6.43
2018-03-16T12:37:01.058Z,11.83
2018-03-16T12:39:33.721Z,6.33
2018-03-16T12:42:06.289Z,6.23
2018-03-16T12:44:38.803Z,4.27
2018-03-16T12:47:11.274Z,6.00
2018-03-16T12:49:44.468Z,4.23
2018-03-16T12:52:17.809Z,6.00
2018-03-16T12:54:50.364Z,5.53
2018-03-16T12:57:22.917Z,5.10
2018-03-16T12:59:55.730Z,4.30
2018-03-16T13:02:28.456Z,5.17
2018-03-16T13:05:01.157Z,5.47
2018-03-16T13:07:33.720Z,6.23
2018-03-16T13:10:06.375Z,5.40
2018-03-16T13:12:38.918Z,5.83
2018-03-16T13:15:11.568Z,5.53
2018-03-16T13:17:44.550Z,7.00
2018-03-16T13:20:17.460Z,6.07
2018-03-16T13:22:50.107Z,5.53
2018-03-16T13:25:22.904Z,7.40
2018-03-16T13:27:55.474Z,6.07
2018-03-16T13:30:28.023Z,4.50
2018-03-16T13:33:00.542Z,5.60
2018-03-16T13:35:33.099Z,5.17
2018-03-16T13:38:05.650Z,7.60
2018-03-16T13:40:38.159Z,5.20
2018-03-16T13:43:10.702Z,6.30
2018-03-16T13:45:44.407Z,4.83
2018-03-16T13:48:17.078Z,8.10
2018-03-16T13:50:49.688Z,3.83
2018-03-16T13:53:22.318Z,5.63
2018-03-16T13:55:55.018Z,5.40
2018-03-16T13:58:27.589Z,6.10
2018-03-16T14:01:00.170Z,4.67
2018-03-16T14:03:32.777Z,11.37
2018-03-16T14:06:05.283Z,5.40
2018-03-16T14:08:37.847Z,5.43
2018-03-16T14:11:10.466Z,5.10
2018-03-16T14:13:43.163Z,5.07
2018-03-16T14:16:16.312Z,4.50
2018-03-16T14:18:49.043Z,4.47
2018-03-16T14:21:21.984Z,3.80
2018-03-16T14:23:54.621Z,5.00
2018-03-16T14:26:28.365Z,5.00
2018-03-16T14:29:01.111Z,4.20
2018-03-16T14:31:33.766Z,4.30
2018-03-16T14:34:06.422Z,5.43
2018-03-16T14:36:39.380Z,4.53
2018-03-16T14:39:13.186Z,4.33
2018-03-16T14:41:46.217Z,3.90
2018-03-16T14:44:19.401Z,3.90
2018-03-16T14:46:52.613Z,4.30
2018-03-16T14:49:25.505Z,2.73
2018-03-16T14:51:58.207Z,4.43
2018-03-16T14:54:31.043Z,3.97
2018-03-16T14:57:03.619Z,5.40
2018-03-16T14:59:36.297Z,5.90
2018-03-16T15:02:09.016Z,5.57
2018-03-16T15:04:42.272Z,4.20
2018-03-16T15:07:15.073Z,5.00
2018-03-16T15:09:48.289Z,5.13
2018-03-16T15:12:21.180Z,5.17
2018-03-16T15:14:54.196Z,3.77
2018-03-16T15:17:26.838Z,4.97
2018-03-16T15:19:59.450Z,3.83
2018-03-16T15:22:31.999Z,3.73
2018-03-16T15:25:04.630Z,2.97
2018-03-16T15:27:37.445Z,3.73
2018-03-16T15:30:10.148Z,3.53
2018-03-16T15:32:42.858Z,3.63
2018-03-16T15:35:18.129Z,3.43
2018-03-16T15:37:51.117Z,4.67
2018-03-16T15:40:24.047Z,3.87
2018-03-16T15:42:56.631Z,6.23
2018-03-16T15:45:29.245Z,4.13
2018-03-16T15:48:01.851Z,3.90
2018-03-16T15:50:34.429Z,3.33
2018-03-16T15:53:07.169Z,5.93
2018-03-16T15:55:40.721Z,3.93
2018-03-16T15:58:13.490Z,4.93
2018-03-16T16:00:46.765Z,4.90
2018-03-16T16:03:19.433Z,8.10
2018-03-16T16:05:52.229Z,5.20
2018-03-16T16:08:24.804Z,6.93
2018-03-16T16:10:57.631Z,3.53
2018-03-16T16:13:30.229Z,4.20
2018-03-16T16:16:02.798Z,4.97
2018-03-16T16:18:35.334Z,6.83
2018-03-16T16:21:07.929Z,3.47
2018-03-16T16:23:40.606Z,6.43
2018-03-16T16:26:14.133Z,2.60
2018-03-16T16:28:47.081Z,5.43
2018-03-16T16:31:20.074Z,4.70
2018-03-16T16:33:52.927Z,3.20
2018-03-16T16:36:25.931Z,4.27
2018-03-16T16:38:58.488Z,5.73
2018-03-16T16:41:31.427Z,5.73
2018-03-16T16:44:04.025Z,3.10
2018-03-16T16:46:36.835Z,3.97
2018-03-16T16:49:09.425Z,2.30
2018-03-16T16:51:42.158Z,9.50
2018-03-16T16:54:15.122Z,2.93
2018-03-16T16:56:48.087Z,5.07
2018-03-16T16:59:20.796Z,4.70
2018-03-16T17:01:53.870Z,5.57
2018-03-16T17:04:26.641Z,4.17
2018-03-16T17:06:59.303Z,4.73
2018-03-16T17:09:31.841Z,3.77
2018-03-16T17:12:04.450Z,4.70
2018-03-16T17:14:36.967Z,3.47
2018-03-16T17:17:09.516Z,2.23
2018-03-16T17:19:42.440Z,4.00
2018-03-16T17:22:15.614Z,4.50
2018-03-16T17:24:48.499Z,9.37
2018-03-16T17:27:21.661Z,5.77
2018-03-16T17:29:54.873Z,14.90
2018-03-16T17:32:27.575Z,24.13
2018-03-16T17:35:00.339Z,13.00
2018-03-16T17:37:32.996Z,4.73
2018-03-16T17:40:05.751Z,9.00
2018-03-16T17:42:38.280Z,6.23
2018-03-16T17:45:10.834Z,8.97
2018-03-16T17:47:43.649Z,9.03
2018-03-16T17:50:16.560Z,17.67
2018-03-16T17:52:49.293Z,9.90
2018-03-16T17:55:21.946Z,6.60
2018-03-16T17:57:55.646Z,21.40
2018-03-16T18:00:28.267Z,12.23
2018-03-16T18:03:01.062Z,7.53
2018-03-16T18:05:33.704Z,5.87
2018-03-16T18:08:06.326Z,3.20
2018-03-16T18:10:38.953Z,4.43
2018-03-16T18:13:12.047Z,5.73
2018-03-16T18:15:45.343Z,5.93
2018-03-16T18:18:18.304Z,4.43
2018-03-16T18:20:51.159Z,5.10
2018-03-16T18:23:24.105Z,5.20
2018-03-16T18:25:56.969Z,5.47
2018-03-16T18:28:30.200Z,4.60
2018-03-16T18:31:02.877Z,4.93
2018-03-16T18:33:35.497Z,4.20
2018-03-16T18:36:08.228Z,2.40
2018-03-16T18:38:40.833Z,4.03
2018-03-16T18:41:13.516Z,4.30
2018-03-16T18:43:46.495Z,2.40
2018-03-16T18:46:19.144Z,3.27
2018-03-16T18:48:52.065Z,6.33
2018-03-16T18:51:24.965Z,7.30
2018-03-16T18:53:57.595Z,4.63
2018-03-16T18:56:30.364Z,5.33
2018-03-16T18:59:02.980Z,5.60
2018-03-16T19:01:35.692Z,3.63
2018-03-16T19:04:14.507Z,7.07
2018-03-16T19:06:49.470Z,4.47
2018-03-16T19:12:08.356Z,3.67
2018-03-16T19:14:40.935Z,6.40
2018-03-16T19:20:02.934Z,3.20
2018-03-16T19:22:35.549Z,3.50
2018-03-16T19:25:08.387Z,4.53
2018-03-16T19:27:54.356Z,2.33
2018-03-16T19:30:27.170Z,2.20
2018-03-16T19:32:59.835Z,4.40
2018-03-16T19:35:32.706Z,6.27
2018-03-16T19:38:05.409Z,6.23
2018-03-16T19:40:37.972Z,13.10
2018-03-16T19:43:18.283Z,12.13
2018-03-16T19:46:04.949Z,7.63
2018-03-16T19:48:49.560Z,8.97
2018-03-16T19:51:25.669Z,4.47
2018-03-16T19:59:54.048Z,3.40
2018-03-16T20:02:28.668Z,2.77
2018-03-16T20:05:06.202Z,2.10
2018-03-16T20:07:40.856Z,4.57
2018-03-16T20:10:23.597Z,4.97
2018-03-16T20:12:57.833Z,4.63
2018-03-16T20:15:30.438Z,2.03
2018-03-16T20:18:02.930Z,2.50
2018-03-16T20:20:35.408Z,3.60
2018-03-16T20:23:07.902Z,3.00
2018-03-16T20:25:40.390Z,3.80
2018-03-16T20:28:13.204Z,3.50
2018-03-16T20:30:45.783Z,3.63
2018-03-16T20:33:19.450Z,4.10
2018-03-16T20:35:52.016Z,3.93
2018-03-16T20:38:24.520Z,1.97
2018-03-16T20:40:57.000Z,4.10
2018-03-16T20:43:29.919Z,5.87
2018-03-16T20:46:03.308Z,6.47
2018-03-16T20:48:37.583Z,4.97
2018-03-16T20:51:10.794Z,5.90
2018-03-16T20:53:43.914Z,5.30
2018-03-16T20:56:16.782Z,6.97
2018-03-16T20:58:49.500Z,3.00
2018-03-16T21:01:22.448Z,4.13
2018-03-16T21:03:55.749Z,5.30
2018-03-16T21:06:28.552Z,7.23
2018-03-16T21:09:01.075Z,2.70
2018-03-16T21:11:35.147Z,3.20
2018-03-16T21:14:08.499Z,3.43
2018-03-16T21:16:41.452Z,6.03
2018-03-16T21:19:14.358Z,12.43
2018-03-16T21:21:47.370Z,4.87
2018-03-16T21:24:20.302Z,3.90
2018-03-16T21:26:53.152Z,5.97
2018-03-16T21:29:26.939Z,3.93
2018-03-16T21:32:01.080Z,3.93
2018-03-16T21:34:33.706Z,23.50
2018-03-16T21:37:06.506Z,14.63
2018-03-16T21:39:39.162Z,4.33
2018-03-16T21:42:11.737Z,3.77
2018-03-16T21:44:44.272Z,3.43
2018-03-16T21:47:16.747Z,3.50
2018-03-16T21:49:49.294Z,2.70
2018-03-16T21:52:21.769Z,7.97
2018-03-16T21:54:54.268Z,4.30
2018-03-16T21:57:26.735Z,3.43
2018-03-16T21:59:59.234Z,3.00
2018-03-16T22:02:31.774Z,2.13
2018-03-16T22:05:04.425Z,6.70
2018-03-16T22:07:37.124Z,3.57
2018-03-16T22:10:09.706Z,6.20
2018-03-16T22:12:42.277Z,4.67
2018-03-16T22:15:14.816Z,2.43
2018-03-16T22:17:47.370Z,7.57
2018-03-16T22:20:19.866Z,3.10
2018-03-16T22:22:52.340Z,2.53
2018-03-16T22:25:24.844Z,5.00
2018-03-16T22:27:57.325Z,6.50
2018-03-16T22:30:30.096Z,9.57
2018-03-16T22:33:02.715Z,8.70
2018-03-16T22:35:35.686Z,5.40
2018-03-16T22:38:08.313Z,4.53
2018-03-16T22:40:40.996Z,2.40
2018-03-16T22:43:13.971Z,6.53
2018-03-16T22:45:46.798Z,5.90
2018-03-16T22:48:19.392Z,2.87
2018-03-16T22:50:52.114Z,9.87
2018-03-16T22:53:25.011Z,3.07
2018-03-16T22:55:57.559Z,9.97
2018-03-16T22:58:30.348Z,4.63
2018-03-16T23:01:02.873Z,4.27
2018-03-16T23:03:35.503Z,8.43
2018-03-16T23:06:08.321Z,5.60
2018-03-16T23:08:41.201Z,2.67
2018-03-16T23:11:13.882Z,4.77
2018-03-16T23:13:46.468Z,2.50
2018-03-16T23:16:19.579Z,2.83
2018-03-16T23:18:52.169Z,4.03
2018-03-16T23:21:24.675Z,2.40
2018-03-16T23:23:57.163Z,2.97
2018-03-16T23:26:29.659Z,6.23
2018-03-16T23:29:02.574Z,3.03
2018-03-16T23:31:35.215Z,3.70
2018-03-16T23:34:08.099Z,4.63
2018-03-16T23:36:40.764Z,2.50
2018-03-16T23:39:13.823Z,6.20
2018-03-16T23:41:46.329Z,4.50
2018-03-16T23:44:18.828Z,2.93
2018-03-16T23:46:51.550Z,2.13
2018-03-16T23:49:24.491Z,1.60
2018-03-16T23:51:57.129Z,4.60
2018-03-16T23:54:29.655Z,4.40
2018-03-16T23:57:02.161Z,2.90
2018-03-16T23:59:35.024Z,3.67
